createdAt,value
2019-04-30T00:02:05.671Z,11.60
2019-04-30T00:04:40.285Z,11.70
2019-04-30T00:07:05.716Z,11.60
2019-04-30T00:09:35.125Z,11.70
2019-04-30T00:12:02.275Z,11.60
2019-04-30T00:14:37.263Z,11.60
2019-04-30T00:16:57.950Z,11.70
2019-04-30T00:19:25.955Z,11.60
2019-04-30T00:21:56.818Z,11.60
2019-04-30T00:24:21.977Z,11.60
2019-04-30T00:26:52.403Z,11.70
2019-04-30T00:29:26.415Z,11.70
2019-04-30T00:31:47.225Z,11.70
2019-04-30T00:34:15.181Z,11.60
2019-04-30T00:36:42.311Z,11.70
2019-04-30T00:39:13.238Z,11.70
2019-04-30T00:41:39.974Z,11.60
2019-04-30T00:44:07.284Z,11.60
2019-04-30T00:46:36.467Z,11.60
2019-04-30T00:49:09.831Z,11.60
2019-04-30T00:51:32.159Z,11.60
2019-04-30T00:53:59.180Z,11.60
2019-04-30T00:56:28.350Z,11.60
2019-04-30T00:58:57.765Z,11.60
2019-04-30T01:01:44.308Z,11.60
2019-04-30T01:04:19.550Z,11.70
2019-04-30T01:06:46.213Z,11.60
2019-04-30T01:09:13.565Z,11.60
2019-04-30T01:11:46.546Z,11.60
2019-04-30T01:14:09.839Z,11.60
2019-04-30T01:16:36.777Z,11.60
2019-04-30T01:19:05.716Z,11.60
2019-04-30T01:21:32.805Z,11.60
2019-04-30T01:23:59.907Z,11.50
2019-04-30T01:26:30.736Z,11.50
2019-04-30T01:28:58.517Z,11.50
2019-04-30T01:31:25.372Z,11.40
2019-04-30T01:33:52.342Z,11.40
2019-04-30T01:36:19.370Z,11.40
2019-04-30T01:38:51.016Z,11.40
2019-04-30T01:41:15.481Z,11.40
2019-04-30T01:43:51.597Z,11.40
2019-04-30T01:47:09.212Z,11.40
2019-04-30T01:57:00.919Z,11.40
2019-04-30T01:59:49.745Z,11.40
2019-04-30T02:02:18.552Z,11.20
2019-04-30T02:05:20.777Z,11.20
2019-04-30T02:07:49.682Z,11.10
2019-04-30T02:10:18.486Z,11.20
2019-04-30T02:12:45.678Z,11.20
2019-04-30T02:15:12.783Z,11.10
2019-04-30T02:17:39.706Z,11.20
2019-04-30T02:20:08.933Z,11.20
2019-04-30T02:22:36.019Z,11.20
2019-04-30T02:25:03.569Z,11.20
2019-04-30T02:27:30.478Z,11.20
2019-04-30T02:30:01.874Z,11.20
2019-04-30T02:32:26.223Z,11.20
2019-04-30T02:35:02.239Z,11.20
2019-04-30T02:37:32.346Z,11.10
2019-04-30T02:40:00.893Z,11.20
2019-04-30T02:42:29.966Z,11.20
2019-04-30T02:45:03.228Z,11.20
2019-04-30T02:47:30.226Z,11.20
2019-04-30T02:50:14.268Z,11.10
2019-04-30T02:52:30.582Z,11.20
2019-04-30T02:54:59.391Z,11.20
2019-04-30T02:57:26.672Z,11.20
2019-04-30T03:00:14.386Z,11.10
2019-04-30T03:02:41.316Z,11.10
2019-04-30T03:05:12.722Z,11.20
2019-04-30T03:07:37.421Z,11.20
2019-04-30T03:10:09.800Z,11.20
2019-04-30T03:12:35.979Z,11.20
2019-04-30T03:15:03.679Z,11.10
2019-04-30T03:17:50.810Z,11.10
2019-04-30T03:20:40.213Z,11.10
2019-04-30T03:23:09.845Z,11.10
2019-04-30T03:25:36.242Z,11.10
2019-04-30T03:28:03.447Z,11.10
2019-04-30T03:30:32.055Z,11.10
2019-04-30T03:33:02.669Z,11.10
2019-04-30T03:51:20.635Z,10.90
2019-04-30T03:54:42.250Z,10.90
2019-04-30T04:18:10.941Z,10.80
2019-04-30T04:22:26.315Z,10.70
2019-04-30T04:24:55.504Z,10.70
2019-04-30T04:29:55.098Z,10.80
2019-04-30T04:34:32.747Z,10.80
2019-04-30T04:51:42.299Z,10.60
2019-04-30T04:54:12.684Z,10.60
2019-04-30T04:57:18.033Z,10.70
2019-04-30T05:03:59.181Z,10.80
2019-04-30T05:07:00.223Z,10.80
2019-04-30T05:09:30.866Z,10.70
2019-04-30T05:11:58.746Z,10.50
2019-04-30T05:14:28.817Z,10.50
2019-04-30T05:20:19.883Z,10.50
2019-04-30T05:23:25.780Z,10.50
2019-04-30T05:26:15.877Z,10.60
2019-04-30T05:28:51.160Z,10.70
2019-04-30T05:32:04.839Z,10.70
2019-04-30T05:34:35.578Z,10.70
2019-04-30T05:38:31.298Z,10.70
2019-04-30T05:45:23.494Z,10.70
2019-04-30T06:02:20.438Z,11.20
2019-04-30T08:16:38.649Z,15.50
2019-04-30T08:23:33.545Z,15.80
2019-04-30T10:03:46.972Z,17.60
2019-04-30T10:07:20.771Z,18.30
2019-04-30T10:09:52.446Z,18.70
2019-04-30T10:13:04.690Z,19.10
2019-04-30T10:15:58.519Z,18.70
2019-04-30T10:18:27.606Z,18.50
2019-04-30T10:21:05.514Z,19.20
2019-04-30T10:24:14.833Z,18.70
2019-04-30T10:26:39.595Z,18.60
2019-04-30T10:29:06.780Z,18.90
2019-04-30T10:31:33.870Z,18.70
2019-04-30T10:34:00.971Z,19.30
2019-04-30T10:36:29.532Z,20.50
2019-04-30T10:38:56.686Z,22.00
2019-04-30T10:41:23.806Z,22.50
2019-04-30T10:43:50.885Z,22.20
2019-04-30T10:46:17.994Z,23.00
2019-04-30T10:48:45.078Z,24.60
2019-04-30T10:51:12.209Z,25.90
2019-04-30T10:53:39.198Z,26.20
2019-04-30T10:56:06.222Z,26.70
2019-04-30T10:58:33.201Z,27.10
2019-04-30T11:01:02.012Z,27.00
2019-04-30T11:03:32.018Z,27.30
2019-04-30T11:05:59.074Z,27.50
2019-04-30T11:08:26.338Z,27.60
2019-04-30T11:10:53.284Z,26.30
2019-04-30T11:13:20.309Z,26.60
2019-04-30T11:15:49.094Z,27.80
2019-04-30T11:18:17.452Z,28.70
2019-04-30T11:20:44.910Z,28.70
2019-04-30T11:23:14.626Z,29.20
2019-04-30T11:25:42.629Z,28.80
2019-04-30T11:28:11.895Z,26.70
2019-04-30T11:30:39.934Z,24.60
2019-04-30T11:33:07.562Z,25.30
2019-04-30T11:35:35.054Z,27.00
2019-04-30T11:38:03.031Z,28.30
2019-04-30T11:40:36.292Z,29.50
2019-04-30T11:43:00.357Z,29.50
2019-04-30T11:46:18.744Z,27.20
2019-04-30T11:48:46.221Z,26.80
2019-04-30T11:51:13.711Z,28.10
2019-04-30T11:53:41.254Z,29.20
2019-04-30T11:56:08.416Z,30.10
2019-04-30T11:58:35.946Z,30.30
2019-04-30T12:01:03.846Z,31.00
2019-04-30T12:03:31.117Z,31.30
2019-04-30T12:05:58.947Z,31.50
2019-04-30T12:08:30.807Z,31.20
2019-04-30T12:11:10.638Z,31.90
2019-04-30T12:13:38.122Z,32.50
2019-04-30T12:16:05.758Z,32.10
2019-04-30T12:18:33.155Z,32.10
2019-04-30T12:21:00.631Z,32.50
2019-04-30T12:23:28.176Z,32.60
2019-04-30T12:25:55.675Z,32.80
2019-04-30T12:28:23.285Z,32.50
2019-04-30T12:30:50.822Z,32.40
2019-04-30T12:33:19.166Z,32.30
2019-04-30T12:35:49.156Z,32.20
2019-04-30T12:38:18.953Z,32.60
2019-04-30T12:40:46.670Z,32.60
2019-04-30T12:43:14.551Z,32.50
2019-04-30T12:45:42.298Z,32.60
2019-04-30T12:48:15.472Z,31.70
2019-04-30T12:51:01.484Z,31.30
2019-04-30T12:53:38.071Z,31.50
2019-04-30T12:56:26.659Z,31.90
2019-04-30T12:58:49.307Z,32.60
2019-04-30T13:01:17.953Z,32.90
2019-04-30T13:03:55.926Z,32.50
2019-04-30T13:06:17.495Z,32.10
2019-04-30T13:08:46.984Z,32.50
2019-04-30T13:11:17.760Z,32.90
2019-04-30T13:13:50.534Z,33.10
2019-04-30T13:16:19.433Z,32.80
2019-04-30T13:18:46.907Z,33.20
2019-04-30T13:21:14.260Z,32.50
2019-04-30T13:23:41.623Z,32.50
2019-04-30T13:26:09.064Z,32.10
2019-04-30T13:28:48.532Z,31.80
2019-04-30T13:31:19.240Z,31.70
2019-04-30T13:33:51.313Z,32.20
2019-04-30T13:36:19.872Z,31.80
2019-04-30T13:39:09.843Z,31.60
2019-04-30T13:41:50.736Z,31.50
2019-04-30T13:44:22.359Z,31.50
2019-04-30T13:46:49.258Z,31.20
2019-04-30T13:49:16.121Z,31.20
2019-04-30T13:51:43.286Z,31.40
2019-04-30T13:54:10.525Z,31.80
2019-04-30T13:56:39.555Z,31.90
2019-04-30T13:59:06.507Z,30.90
2019-04-30T14:01:33.389Z,31.40
2019-04-30T14:04:26.378Z,31.20
2019-04-30T14:07:12.065Z,30.90
2019-04-30T14:09:39.142Z,31.50
2019-04-30T14:12:06.161Z,31.50
2019-04-30T14:14:33.181Z,31.20
2019-04-30T14:17:01.286Z,31.30
2019-04-30T14:19:29.559Z,31.50
2019-04-30T14:21:56.742Z,31.00
2019-04-30T14:24:23.644Z,30.80
2019-04-30T14:26:50.826Z,30.80
2019-04-30T14:29:17.829Z,30.90
2019-04-30T14:31:44.941Z,30.70
2019-04-30T14:34:11.805Z,30.10
2019-04-30T14:36:39.275Z,30.00
2019-04-30T14:39:14.576Z,29.50
2019-04-30T14:41:36.817Z,29.80
2019-04-30T14:44:11.179Z,30.00
2019-04-30T14:46:54.987Z,29.90
2019-04-30T14:49:59.413Z,29.40
2019-04-30T14:52:19.205Z,29.70
2019-04-30T14:54:58.785Z,29.50
2019-04-30T14:58:03.871Z,29.20
2019-04-30T15:00:55.786Z,29.00
2019-04-30T15:03:22.852Z,29.20
2019-04-30T15:05:51.711Z,28.60
2019-04-30T15:08:19.420Z,28.30
2019-04-30T15:10:46.480Z,28.40
2019-04-30T15:13:13.466Z,28.10
2019-04-30T15:15:40.634Z,28.70
2019-04-30T15:18:09.205Z,29.00
2019-04-30T15:20:36.277Z,29.30
2019-04-30T15:23:19.062Z,28.60
2019-04-30T15:25:42.879Z,28.10
2019-04-30T15:28:10.993Z,27.00
2019-04-30T15:30:38.858Z,26.30
2019-04-30T15:33:16.289Z,26.70
2019-04-30T15:35:43.256Z,26.40
2019-04-30T15:38:10.242Z,26.50
2019-04-30T15:40:38.784Z,26.50
2019-04-30T15:43:06.203Z,26.20
2019-04-30T15:45:33.274Z,26.00
2019-04-30T15:48:00.145Z,26.20
2019-04-30T15:50:27.035Z,26.30
2019-04-30T15:52:54.265Z,26.40
2019-04-30T15:55:21.273Z,26.40
2019-04-30T15:58:03.149Z,26.30
2019-04-30T16:00:31.862Z,26.10
2019-04-30T16:03:04.113Z,25.80
2019-04-30T16:05:37.154Z,25.00
2019-04-30T16:08:20.545Z,23.90
2019-04-30T16:11:10.226Z,22.90
2019-04-30T16:13:54.282Z,22.40
2019-04-30T16:16:24.318Z,21.90
2019-04-30T16:18:51.321Z,21.60
2019-04-30T16:21:19.376Z,21.40
2019-04-30T16:23:48.552Z,21.30
2019-04-30T16:26:15.550Z,20.90
2019-04-30T16:28:42.567Z,20.80
2019-04-30T16:31:09.573Z,20.60
2019-04-30T16:33:36.533Z,20.30
2019-04-30T16:36:03.509Z,20.10
2019-04-30T16:38:30.404Z,19.70
2019-04-30T16:40:58.496Z,19.50
2019-04-30T16:43:25.770Z,19.40
2019-04-30T16:45:53.034Z,19.30
2019-04-30T16:48:19.986Z,19.00
2019-04-30T16:50:50.701Z,19.00
2019-04-30T16:53:16.014Z,18.70
2019-04-30T16:55:42.954Z,18.70
2019-04-30T16:58:09.917Z,18.60
2019-04-30T17:00:39.163Z,18.50
2019-04-30T17:03:12.142Z,18.40
2019-04-30T17:05:46.263Z,18.30
2019-04-30T17:08:22.989Z,18.20
2019-04-30T17:11:06.477Z,17.90
2019-04-30T17:13:46.094Z,17.70
2019-04-30T17:16:15.437Z,17.60
2019-04-30T17:18:42.282Z,17.60
2019-04-30T17:21:09.899Z,17.60
2019-04-30T17:23:37.081Z,17.40
2019-04-30T17:26:04.043Z,17.30
2019-04-30T17:28:30.975Z,17.20
2019-04-30T17:30:58.926Z,17.00
2019-04-30T17:33:25.908Z,16.80
2019-04-30T17:35:52.776Z,16.70
2019-04-30T17:38:19.768Z,16.60
2019-04-30T17:40:49.051Z,16.40
2019-04-30T17:43:16.793Z,16.40
2019-04-30T17:45:44.732Z,16.30
2019-04-30T17:48:12.773Z,16.30
2019-04-30T17:50:39.786Z,16.20
2019-04-30T17:53:08.945Z,16.00
2019-04-30T17:55:35.769Z,15.90
2019-04-30T17:58:02.845Z,15.70
2019-04-30T18:00:31.628Z,15.60
2019-04-30T18:02:58.598Z,15.60
2019-04-30T18:05:25.830Z,15.50
2019-04-30T18:07:52.838Z,15.50
2019-04-30T18:10:20.997Z,15.50
2019-04-30T18:12:48.681Z,15.30
2019-04-30T18:15:20.701Z,15.20
2019-04-30T18:18:10.116Z,15.10
2019-04-30T18:20:43.905Z,14.90
2019-04-30T18:23:29.165Z,14.80
2019-04-30T18:26:01.546Z,14.70
2019-04-30T18:28:29.169Z,14.60
2019-04-30T18:30:56.221Z,14.50
2019-04-30T18:33:23.193Z,14.30
2019-04-30T18:35:50.068Z,14.30
2019-04-30T18:38:17.812Z,14.20
2019-04-30T18:40:46.023Z,14.20
2019-04-30T18:43:12.914Z,14.10
2019-04-30T18:45:39.854Z,14.10
2019-04-30T18:48:06.714Z,14.00
2019-04-30T18:50:33.723Z,13.90
2019-04-30T18:53:03.673Z,13.80
2019-04-30T18:55:30.640Z,13.80
2019-04-30T18:58:01.231Z,13.70
2019-04-30T19:00:39.521Z,13.70
2019-04-30T19:03:08.654Z,13.60
2019-04-30T19:05:36.893Z,13.50
2019-04-30T19:08:09.821Z,13.40
2019-04-30T19:11:09.396Z,13.40
2019-04-30T19:14:11.183Z,13.40
2019-04-30T19:16:56.101Z,13.30
2019-04-30T19:19:51.821Z,13.20
2019-04-30T19:22:19.157Z,13.20
2019-04-30T19:24:55.679Z,13.10
2019-04-30T19:27:15.105Z,13.00
2019-04-30T19:29:42.081Z,13.00
2019-04-30T19:32:09.497Z,12.90
2019-04-30T19:34:36.633Z,12.90
2019-04-30T19:37:03.504Z,12.80
2019-04-30T19:39:32.467Z,12.60
2019-04-30T19:42:01.038Z,12.60
2019-04-30T19:44:29.334Z,12.60
2019-04-30T19:46:56.353Z,12.60
2019-04-30T19:49:23.225Z,12.60
2019-04-30T19:51:53.309Z,12.50
2019-04-30T19:54:19.894Z,12.40
2019-04-30T19:56:47.297Z,12.40
2019-04-30T19:59:14.157Z,12.30
2019-04-30T20:01:41.039Z,12.30
2019-04-30T20:04:09.705Z,12.20
2019-04-30T20:06:38.626Z,12.10
2019-04-30T20:09:06.510Z,12.20
2019-04-30T20:11:35.387Z,12.20
2019-04-30T20:14:02.450Z,12.10
2019-04-30T20:16:29.357Z,12.10
2019-04-30T20:18:56.241Z,12.00
2019-04-30T20:21:28.517Z,12.10
2019-04-30T20:23:52.965Z,12.00
2019-04-30T20:26:19.875Z,11.90
2019-04-30T20:28:48.685Z,11.90
2019-04-30T20:31:16.068Z,11.80
2019-04-30T20:33:42.921Z,11.70
2019-04-30T20:36:09.901Z,11.70
2019-04-30T20:38:45.249Z,11.60
2019-04-30T20:41:12.190Z,11.60
2019-04-30T20:43:39.516Z,11.50
2019-04-30T20:46:08.499Z,11.50
2019-04-30T20:48:35.527Z,11.40
2019-04-30T20:51:02.499Z,11.30
2019-04-30T20:53:29.467Z,11.30
2019-04-30T20:55:56.417Z,11.30
2019-04-30T20:58:23.288Z,11.30
2019-04-30T21:01:00.527Z,11.30
2019-04-30T21:03:19.648Z,11.30
2019-04-30T21:05:46.713Z,11.30
2019-04-30T21:08:14.636Z,11.10
2019-04-30T21:10:41.517Z,11.10
2019-04-30T21:13:10.898Z,11.10
2019-04-30T21:15:39.420Z,11.00
2019-04-30T21:18:06.259Z,10.90
2019-04-30T21:20:33.254Z,10.90
2019-04-30T21:23:00.127Z,10.80
2019-04-30T21:25:28.975Z,10.80
2019-04-30T21:27:56.014Z,10.70
2019-04-30T21:30:22.989Z,10.70
2019-04-30T21:33:00.569Z,10.70
2019-04-30T21:35:32.573Z,10.70
2019-04-30T21:38:01.640Z,10.70
2019-04-30T21:40:29.954Z,10.60
2019-04-30T21:42:57.037Z,10.70
2019-04-30T21:45:24.035Z,10.60
2019-04-30T21:47:56.318Z,10.50
2019-04-30T21:50:20.001Z,10.50
2019-04-30T21:52:47.033Z,10.50
2019-04-30T21:55:14.113Z,10.50
2019-04-30T21:57:41.346Z,10.50
2019-04-30T22:00:09.898Z,10.40
2019-04-30T22:02:40.529Z,10.30
2019-04-30T22:05:08.885Z,10.30
2019-04-30T22:07:35.934Z,10.20
2019-04-30T22:10:04.220Z,10.10
2019-04-30T22:12:31.259Z,10.10
2019-04-30T22:14:58.249Z,10.00
2019-04-30T22:17:25.965Z,10.00
2019-04-30T22:19:52.998Z,10.00
2019-04-30T22:22:19.954Z,10.00
2019-04-30T22:24:46.821Z,10.00
2019-04-30T22:27:13.666Z,10.00
2019-04-30T22:29:42.255Z,10.00
2019-04-30T22:32:09.462Z,9.90
2019-04-30T22:34:36.546Z,9.90
2019-04-30T22:37:03.541Z,9.80
2019-04-30T22:39:41.113Z,9.80
2019-04-30T22:42:29.909Z,9.60
2019-04-30T22:44:57.572Z,9.60
2019-04-30T22:47:24.421Z,9.70
2019-04-30T22:49:51.414Z,9.60
2019-04-30T22:52:18.473Z,9.70
2019-04-30T22:54:45.349Z,9.60
2019-04-30T22:57:12.240Z,9.60
2019-04-30T22:59:49.462Z,9.60
2019-04-30T23:02:25.665Z,9.50
2019-04-30T23:04:52.745Z,9.40
2019-04-30T23:07:19.837Z,9.40
2019-04-30T23:09:46.841Z,9.40
2019-04-30T23:12:13.810Z,9.30
2019-04-30T23:14:40.837Z,9.40
2019-04-30T23:17:08.064Z,9.30
2019-04-30T23:19:35.481Z,9.30
2019-04-30T23:22:03.074Z,9.30
2019-04-30T23:24:29.937Z,9.20
2019-04-30T23:26:56.822Z,9.10
2019-04-30T23:29:23.709Z,9.00
2019-04-30T23:31:50.582Z,9.00
2019-04-30T23:34:18.369Z,9.00
2019-04-30T23:36:45.465Z,8.90
2019-04-30T23:39:12.513Z,8.90
2019-04-30T23:41:39.412Z,8.80
2019-04-30T23:44:06.259Z,8.70
2019-04-30T23:46:33.131Z,8.80
2019-04-30T23:49:00.007Z,8.80
2019-04-30T23:51:26.861Z,8.80
2019-04-30T23:53:53.742Z,8.80
2019-04-30T23:56:20.982Z,8.90
2019-04-30T23:58:47.886Z,8.90
